TimeEST,TemperatureF,Dew PointF,Humidity,Sea Level PressureIn,VisibilityMPH,Wind Direction,Wind SpeedMPH,Gust SpeedMPH,PrecipitationIn,Events,Conditions,WindDirDegrees,DateUTC
12:49 AM,37.4,37.4,100,30.07,3.0,SSE,5.8,-,0.01,,Overcast,150,2012-02-05 05:49:00
12:54 AM,37.9,37.0,97,30.08,3.0,SSE,5.8,-,0.01,,Overcast,160,2012-02-05 05:54:00
1:06 AM,37.4,37.4,100,30.06,3.0,South,4.6,-,0.00,Rain,Light Rain,170,2012-02-05 06:06:00
1:54 AM,37.9,36.0,93,30.07,3.0,South,5.8,-,0.02,Rain,Light Rain,170,2012-02-05 06:54:00
2:35 AM,37.4,35.6,93,30.06,4.0,SE,4.6,-,0.03,Rain,Light Rain,140,2012-02-05 07:35:00
2:54 AM,37.0,36.0,96,30.07,4.0,SSE,5.8,-,0.06,Rain,Light Rain,150,2012-02-05 07:54:00
3:28 AM,37.4,35.6,93,30.05,5.0,SSE,4.6,-,0.00,,Light Drizzle,160,2012-02-05 08:28:00
3:54 AM,37.0,35.1,93,30.06,7.0,SE,5.8,-,0.00,,Overcast,140,2012-02-05 08:54:00
4:28 AM,37.4,35.6,93,30.04,5.0,SSE,3.5,-,N/A,,Overcast,160,2012-02-05 09:28:00
4:54 AM,37.0,36.0,96,30.05,5.0,SSE,3.5,-,0.00,Rain,Light Rain,160,2012-02-05 09:54:00
5:54 AM,37.0,35.1,93,30.04,6.0,SE,3.5,-,0.00,,Overcast,140,2012-02-05 10:54:00
6:45 AM,37.4,35.6,93,30.04,7.0,SSE,4.6,-,N/A,,Overcast,150,2012-02-05 11:45:00
6:54 AM,37.9,35.1,89,30.06,7.0,SSE,5.8,-,N/A,,Overcast,150,2012-02-05 11:54:00
7:54 AM,37.9,36.0,93,30.07,5.0,SSE,3.5,-,N/A,,Overcast,150,2012-02-05 12:54:00
8:54 AM,37.9,36.0,93,30.11,5.0,ESE,3.5,-,N/A,,Overcast,120,2012-02-05 13:54:00
9:22 AM,37.4,35.6,93,30.10,2.5,ESE,3.5,-,0.01,Rain,Light Rain,120,2012-02-05 14:22:00
9:54 AM,37.9,36.0,93,30.12,2.5,SE,3.5,-,0.02,Rain,Light Rain,140,2012-02-05 14:54:00
10:05 AM,37.4,35.6,93,30.12,3.0,SSE,3.5,-,0.00,Rain,Light Rain,160,2012-02-05 15:05:00
10:54 AM,39.0,36.0,89,30.14,5.0,SSE,4.6,-,0.02,Rain,Light Rain,160,2012-02-05 15:54:00
11:01 AM,39.2,35.6,87,30.13,7.0,SSE,4.6,-,0.00,Rain,Light Rain,150,2012-02-05 16:01:00
11:12 AM,39.2,35.6,87,30.13,6.0,ESE,4.6,-,0.00,,Overcast,110,2012-02-05 16:12:00
11:54 AM,39.9,37.0,89,30.15,10.0,South,3.5,-,0.00,,Overcast,170,2012-02-05 16:54:00
12:54 PM,39.9,37.0,89,30.13,10.0,Calm,Calm,-,N/A,,Overcast,0,2012-02-05 17:54:00
1:54 PM,39.9,37.0,89,30.13,9.0,SE,3.5,-,N/A,,Overcast,140,2012-02-05 18:54:00
2:54 PM,41.0,37.0,86,30.15,10.0,Calm,Calm,-,N/A,,Overcast,0,2012-02-05 19:54:00
3:54 PM,39.9,37.0,89,30.17,9.0,ESE,4.6,-,N/A,,Overcast,120,2012-02-05 20:54:00
4:54 PM,39.9,37.0,89,30.19,10.0,NE,6.9,-,N/A,,Overcast,40,2012-02-05 21:54:00
5:47 PM,39.2,35.6,87,30.19,10.0,NNE,5.8,-,N/A,,Overcast,30,2012-02-05 22:47:00
5:54 PM,39.9,35.1,83,30.22,10.0,Calm,Calm,-,N/A,,Overcast,0,2012-02-05 22:54:00
6:38 PM,39.2,35.6,87,30.22,10.0,Calm,Calm,-,N/A,,Overcast,0,2012-02-05 23:38:00
6:54 PM,37.9,34.0,86,30.24,10.0,WNW,5.8,-,N/A,,Mostly Cloudy,300,2012-02-05 23:54:00
7:01 PM,37.4,33.8,87,30.22,10.0,NW,3.5,-,N/A,,Scattered Clouds,320,2012-02-06 00:01:00
7:54 PM,36.0,33.1,89,30.25,10.0,North,8.1,-,N/A,,Clear,10,2012-02-06 00:54:00
8:54 PM,36.0,33.1,89,30.26,10.0,North,6.9,-,N/A,,Clear,360,2012-02-06 01:54:00
9:54 PM,35.1,32.0,89,30.25,10.0,North,4.6,-,N/A,,Clear,350,2012-02-06 02:54:00
10:54 PM,35.1,33.1,92,30.26,7.0,NNW,4.6,-,N/A,,Partly Cloudy,340,2012-02-06 03:54:00
11:08 PM,35.6,33.8,93,30.25,8.0,Calm,Calm,-,N/A,,Mostly Cloudy,0,2012-02-06 04:08:00
11:54 PM,34.0,33.1,96,30.28,7.0,Calm,Calm,-,N/A,,Overcast,0,2012-02-06 04:54:00